Flight Track Log - Related Links

Times and Time Zones

All times are in EDT time to prevent confusion due to time zone crossing. See the EJM214 flight status page for this flight to view local times or setup timezone preferences in your user account.

Time Position Orientation Groundspeed Altitude Reporting Facility
EDT Latitude Longitude Course Direction KTS MPH feet Rate Location/Type
Thu 11:47:26 AM 42.3833 -71.0000 20° North 193 222 900  Level KA90
Thu 11:48:03 AM 42.4167 -70.9833 20° North 207 238 3,300 2,536 Climbing KA90
Thu 11:49:03 AM 42.4500 -70.9167 56° Northeast 281 323 5,000 1,333 Climbing KA90
Thu 11:50:54 AM 42.5408 -70.8114 40° Northeast 296 341 7,100 1,754 Climbing Boston Center
Thu 11:51:54 AM 42.6144 -70.8544 337° Northwest 254 292 10,000 2,850 Climbing Boston Center
Thu 11:52:54 AM 42.6597 -70.9608 300° West 275 316 12,800 3,400 Climbing Boston Center
Thu 11:53:54 AM 42.7050 -71.0783 298° West 340 391 16,800 2,950 Climbing Boston Center
Thu 11:54:54 AM 42.7350 -71.1597 297° West 349 402 18,700 2,750 Climbing Boston Center
Thu 11:55:54 AM 42.7783 -71.3172 291° West 360 414 22,300 3,000 Climbing Boston Center
Thu 11:56:54 AM 42.7922 -71.4611 278° West 374 430 24,700 2,600 Climbing Boston Center
Thu 11:57:54 AM 42.8017 -71.6194 275° West 381 438 27,500 2,450 Climbing Boston Center
Thu 11:58:54 AM 42.8172 -71.7692 278° West 389 448 29,600 2,050 Climbing Boston Center
Thu 11:59:54 AM 42.8306 -71.9164 277° West 396 456 31,600 2,000 Climbing Boston Center
Thu 12:00:54 PM 42.8436 -72.0606 277° West 396 456 33,600 2,000 Climbing Boston Center
Thu 12:01:54 PM 42.8544 -72.2078 276° West 396 456 35,600 1,650 Climbing Boston Center
Thu 12:02:54 PM 42.8733 -72.3381 281° West 396 456 36,900 1,150 Climbing Boston Center
Thu 12:03:54 PM 42.8839 -72.4853 276° West 396 456 37,900 1,150 Climbing Boston Center
Thu 12:04:54 PM 42.8900 -72.6497 273° West 396 456 39,200 1,300 Climbing Boston Center
Thu 12:05:54 PM 42.9022 -72.7944 277° West 396 456 40,500 900 Climbing Boston Center
Thu 12:06:54 PM 42.9142 -72.9475 276° West 396 456 41,000 400 Climbing Boston Center
Thu 12:07:54 PM 42.9281 -73.0808 278° West 401 461 41,300 500 Climbing Boston Center
Thu 12:08:54 PM 42.9394 -73.2314 276° West 401 461 42,000 550 Climbing Boston Center
Thu 12:09:54 PM 42.9467 -73.3761 274° West 401 461 42,400 409 Climbing Boston Center
Thu 12:11:06 PM 42.9558 -73.5322 275° West 407 468 42,900 273 Climbing Boston Center
Thu 12:12:06 PM 42.9683 -73.7197 275° West 413 475 43,000 50 Climbing Boston Center
Thu 12:13:06 PM 42.9794 -73.8506 277° West 420 483 43,000  Level Boston Center
Thu 12:14:06 PM 42.9933 -74.0467 276° West 431 496 43,000  Level Boston Center
Thu 12:15:06 PM 43.0056 -74.2089 276° West 431 496 43,000  Level Boston Center
Thu 12:16:06 PM 43.0156 -74.3683 275° West 431 496 43,000  Level Boston Center
Thu 12:17:06 PM 43.0253 -74.5306 275° West 426 490 43,000  Level Boston Center
Thu 12:18:06 PM 43.0347 -74.6869 275° West 426 490 43,000  Level Boston Center
Thu 12:19:06 PM 43.0442 -74.8436 275° West 421 484 43,000  Level Boston Center
Thu 12:20:06 PM 43.0553 -75.0003 276° West 421 484 43,000  Level Boston Center
Thu 12:21:06 PM 43.0642 -75.1569 274° West 421 484 43,000  Level Boston Center
Thu 12:22:06 PM 43.0728 -75.3167 274° West 421 484 43,000  Level Boston Center
Thu 12:23:06 PM 43.0811 -75.4706 274° West 421 484 43,000  Level Boston Center
Thu 12:24:06 PM 43.0911 -75.6417 275° West 421 484 43,000  Level Boston Center
Thu 12:25:06 PM 43.1014 -75.7958 275° West 421 484 43,000  Level Boston Center
Thu 12:26:06 PM 43.1089 -75.9556 274° West 421 484 43,000  Level Boston Center
Thu 12:27:41 PM 43.1167 -76.1667 273° West 410 472 43,000  Level Toronto Center
Thu 12:28:34 PM 43.1256 -76.3158 275° West 402 463 43,000  Level Cleveland Center
Thu 12:29:34 PM 43.1333 -76.4692 274° West 402 463 43,000  Level Cleveland Center
Thu 12:30:34 PM 43.1425 -76.6194 275° West 402 463 43,000  Level Cleveland Center
Thu 12:31:34 PM 43.1475 -76.7669 273° West 397 457 43,000  Level Cleveland Center
Thu 12:32:34 PM 43.1547 -76.9203 274° West 397 457 43,000  Level Cleveland Center
Thu 12:33:34 PM 43.1614 -77.0708 274° West 402 463 43,000  Level Cleveland Center
Thu 12:34:34 PM 43.1681 -77.2214 274° West 402 463 43,000  Level Cleveland Center
Thu 12:35:34 PM 43.1744 -77.3719 273° West 402 463 43,000  Level Cleveland Center
Thu 12:36:34 PM 43.1783 -77.5228 272° West 402 463 43,000  Level Cleveland Center
Thu 12:37:34 PM 43.1844 -77.6733 273° West 402 463 43,000  Level Cleveland Center
Thu 12:38:34 PM 43.1900 -77.8239 273° West 402 463 43,000  Level Cleveland Center
Thu 12:39:34 PM 43.1958 -77.9775 273° West 407 468 43,000  Level Cleveland Center
Thu 12:40:34 PM 43.2011 -78.1311 273° West 402 463 43,000  Level Cleveland Center
Thu 12:41:34 PM 43.2064 -78.2847 273° West 402 463 43,000  Level Cleveland Center
Thu 12:42:34 PM 43.2097 -78.4556 272° West 409 471 43,000  Level Cleveland Center
Thu 12:43:34 PM 43.2167 -78.6119 274° West 416 479 43,000  Level Cleveland Center
Thu 12:44:34 PM 43.2211 -78.7656 272° West 416 479 43,000  Level Cleveland Center
Thu 12:45:34 PM 43.2236 -78.9194 271° West 416 479 43,000  Level Cleveland Center
Thu 12:46:34 PM 43.2278 -79.0789 272° West 416 479 43,000  Level Cleveland Center
Thu 12:47:41 PM 43.2167 -79.2167 264° West 410 472 43,000  Level Toronto Center
Thu 12:48:41 PM 43.2167 -79.4000 270° West 410 472 43,000  Level Toronto Center
Thu 12:49:41 PM 43.2333 -79.5333 280° West 410 472 43,000  Level Toronto Center
Thu 12:50:41 PM 43.2500 -79.7000 278° West 410 472 43,000  Level Toronto Center
Thu 12:51:41 PM 43.2667 -79.8667 278° West 420 483 43,000  Level Toronto Center
Thu 12:52:41 PM 43.2833 -80.0167 279° West 410 472 43,000  Level Toronto Center
Thu 12:53:41 PM 43.3000 -80.1833 278° West 420 483 43,000  Level Toronto Center
Thu 12:54:41 PM 43.3167 -80.3167 280° West 420 483 43,000  Level Toronto Center
Thu 12:55:41 PM 43.3333 -80.4833 278° West 420 483 43,000  Level Toronto Center
Thu 12:56:41 PM 43.3500 -80.6500 278° West 420 483 43,000  Level Toronto Center
Thu 12:57:41 PM 43.3667 -80.8000 279° West 420 483 43,000  Level Toronto Center
Thu 12:58:41 PM 43.3667 -80.9667 270° West 420 483 43,000  Level Toronto Center
Thu 12:59:41 PM 43.3833 -81.1167 279° West 420 483 43,000  Level Toronto Center
Thu 01:00:41 PM 43.4000 -81.2833 278° West 430 495 43,000  Level Toronto Center
Thu 01:01:41 PM 43.4167 -81.4500 278° West 430 495 43,000  Level Toronto Center
Thu 01:02:41 PM 43.4333 -81.6000 279° West 430 495 43,000  Level Toronto Center
Thu 01:03:41 PM 43.4500 -81.7667 278° West 430 495 43,000  Level Toronto Center
Thu 01:04:41 PM 43.4500 -81.9333 270° West 430 495 43,000  Level Toronto Center
Thu 01:05:41 PM 43.4667 -82.0833 279° West 430 495 43,000  Level Toronto Center
Thu 01:06:22 PM 43.4950 -82.2028 288° West 426 490 43,000  Level Cleveland Center
Thu 01:07:22 PM 43.5094 -82.3606 277° West 426 490 43,000  Level Cleveland Center
Thu 01:08:22 PM 43.5214 -82.5242 276° West 426 490 43,000  Level Cleveland Center
Thu 01:09:22 PM 43.5331 -82.6819 276° West 426 490 43,000  Level Cleveland Center
Thu 01:11:41 PM 43.5500 -83.0667 274° West 420 483 43,000  Level Toronto Center
Thu 01:12:41 PM 43.5500 -83.2167 270° West 420 483 43,000  Level Toronto Center
Thu 01:13:41 PM 43.5667 -83.3833 278° West 420 483 43,000  Level Toronto Center
Thu 01:14:41 PM 43.5833 -83.5500 278° West 420 483 43,000  Level Toronto Center
Thu 01:15:53 PM 43.6097 -83.7361 281° West 422 486 43,000  Level Minneapolis Center
Thu 01:16:56 PM 43.6208 -83.8961 276° West 423 487 43,000  Level Minneapolis Center
Thu 01:17:57 PM 43.6294 -84.0236 275° West 421 484 43,000  Level Minneapolis Center
Thu 01:19:00 PM 43.6411 -84.2167 275° West 421 484 43,000  Level Minneapolis Center
Thu 01:20:02 PM 43.6528 -84.3769 276° West 422 486 43,000  Level Minneapolis Center
Thu 01:21:04 PM 43.6642 -84.5694 275° West 421 484 43,000  Level Minneapolis Center
Thu 01:22:06 PM 43.6744 -84.7311 275° West 423 487 43,000  Level Minneapolis Center
Thu 01:23:08 PM 43.6839 -84.8914 275° West 423 487 43,000  Level Minneapolis Center
Thu 01:24:10 PM 43.6936 -85.0531 275° West 424 488 43,000  Level Minneapolis Center
Thu 01:25:12 PM 43.7025 -85.2128 274° West 422 486 43,000  Level Minneapolis Center
Thu 01:26:14 PM 43.7131 -85.4067 274° West 424 488 43,000  Level Minneapolis Center
Thu 01:27:16 PM 43.7222 -85.5681 275° West 424 488 43,000  Level Minneapolis Center
Thu 01:28:18 PM 43.7294 -85.7289 274° West 424 488 43,000  Level Minneapolis Center
Thu 01:29:21 PM 43.7383 -85.8908 274° West 425 489 43,000  Level Minneapolis Center
Thu 01:30:23 PM 43.7456 -86.0519 274° West 424 488 43,000  Level Minneapolis Center
Thu 01:31:24 PM 43.7519 -86.1814 274° West 424 488 43,000  Level Minneapolis Center
Thu 01:32:27 PM 43.7639 -86.4064 274° West 424 488 43,000  Level Minneapolis Center
Thu 01:33:29 PM 43.7708 -86.5686 273° West 424 488 43,000  Level Minneapolis Center
Thu 01:34:33 PM 43.7800 -86.7297 275° West 425 489 43,000  Level Chicago Center
Thu 01:35:45 PM 43.7861 -86.9242 273° West 424 488 43,000  Level Minneapolis Center
Thu 01:36:48 PM 43.7931 -87.1175 273° West 422 486 43,000  Level Minneapolis Center
Thu 01:37:39 PM 43.7986 -87.2494 273° West 428 493 43,000  Level Chicago Center
Thu 01:38:42 PM 43.8044 -87.4061 273° West 424 488 43,000  Level Chicago Center
Thu 01:39:44 PM 43.8125 -87.5978 273° West 425 489 43,000  Level Chicago Center
Thu 01:40:46 PM 43.8178 -87.7633 273° West 429 494 43,000 -242 Level Chicago Center
Thu 01:41:48 PM 43.8217 -87.9269 272° West 427 491 42,500 -1,210 Descending Chicago Center
Thu 01:42:50 PM 43.8275 -88.0878 273° West 421 484 40,500 -1,887 Descending Chicago Center
Thu 01:43:52 PM 43.8325 -88.2508 272° West 425 489 38,600 -2,081 Descending Chicago Center
Thu 01:44:54 PM 43.8372 -88.4442 272° West 432 497 36,200 -2,081 Descending Chicago Center
Thu 01:45:56 PM 43.8414 -88.6078 272° West 430 495 34,300 -1,935 Descending Chicago Center
Thu 01:46:58 PM 43.8158 -88.7800 258° West 464 534 32,200 -1,597 Descending Chicago Center
Thu 01:48:00 PM 43.7667 -88.9450 248° West 471 542 31,000 -629 Descending Chicago Center
Thu 01:49:02 PM 43.6742 -89.1169 233° Southwest 481 554 30,900 -816 Descending Chicago Center
Thu 01:50:05 PM 43.5969 -89.2653 234° Southwest 480 552 29,300 -1,728 Descending Chicago Center
Thu 01:51:07 PM 43.5256 -89.4156 237° Southwest 472 543 27,300 -1,984 Descending Chicago Center
Thu 01:52:09 PM 43.4961 -89.5764 256° West 439 505 25,200 -2,129 Descending Chicago Center
Thu 01:53:11 PM 43.4719 -89.7567 260° West 412 474 22,900 -2,081 Descending Chicago Center
Thu 01:54:13 PM 43.4586 -89.9086 263° West 402 463 20,900 -1,935 Descending Chicago Center
Thu 01:55:15 PM 43.4697 -90.0575 276° West 400 460 18,900 -1,839 Descending Chicago Center
Thu 01:56:17 PM 43.5156 -90.1906 295° West 384 442 17,100 -1,984 Descending Chicago Center
Thu 01:57:19 PM 43.5647 -90.3308 296° West 376 433 14,800 -2,081 Descending Chicago Center
Thu 01:58:21 PM 43.6064 -90.4508 296° West 359 413 12,800 -1,935 Descending Chicago Center
Thu 01:59:23 PM 43.6417 -90.5578 295° West 324 373 10,800 -1,872 Descending Chicago Center
Thu 02:00:26 PM 43.6764 -90.6572 296° West 300 345 8,900 -1,867 Descending Chicago Center
Thu 02:01:38 PM 43.7178 -90.7808 295° West 273 314 6,600 -1,299 Descending Minneapolis Center
Thu 02:02:40 PM 43.7519 -90.8836 295° West 282 325 6,000 -339 Descending Minneapolis Center
Thu 02:03:42 PM 43.7861 -90.9858 295° West 280 322 5,900 -823 Descending Minneapolis Center
Thu 02:04:44 PM 43.8178 -91.0814 295° West 265 305 4,300 -1,403 Descending Minneapolis Center
Thu 02:05:46 PM 43.8653 -91.1625 309° West 264 304 3,000 -1,016 Descending Minneapolis Center
Thu 02:06:48 PM 43.9167 -91.2139 324° Northwest 219 252 2,200 -774 Descending Minneapolis Center
Thu 02:08:00 PM 43.8793 -91.2566 296° West  Level Estimated

Login

Don't have an account? Register now (free) for customized features, flight alerts, and more!